Ravels, Belgium
Current Conditions -  °F | °C
As of 3:25 PM on Friday 24 Oct 2014 (Local Time) from EHGR Reporting Station
Drizzle Drizzle  
Wind Chill: 55°   Ceiling: 1600
Heat Index: 55°   Visibility: 6mi
Dew Point: 52°   Wind: 13mph
Humidity: 88%   Direction: 190°S
Pressure: 30.03"   Gusts: NA
Location:  51.37°N, 4.99°E
Report Text: EHGR 241325Z AUTO 19011KT 9999 -DZ FEW014 OVC016 13/11 Q1017 WHT 19010KT 9999 SCT020 BKN035 TEMPO FEW010 BKN015
Loading
Personal Weather Stations






























Interactive Weather Map New forecast layout! Learn more

10-Day Weather Forecast

Advertisements
Track Severe Weather on mobile